createdAt,value
2023-08-11T00:01:40.565Z,19.90
2023-08-11T00:04:42.475Z,19.89
2023-08-11T00:07:46.242Z,19.88
2023-08-11T00:10:48.287Z,19.81
2023-08-11T00:13:50.687Z,19.66
2023-08-11T00:16:52.500Z,19.77
2023-08-11T00:19:54.353Z,19.76
2023-08-11T00:22:56.573Z,19.80
2023-08-11T00:25:58.710Z,19.81
2023-08-11T00:29:00.616Z,19.80
2023-08-11T00:32:02.568Z,19.79
2023-08-11T00:35:05.274Z,19.78
2023-08-11T00:38:07.274Z,19.74
2023-08-11T00:41:09.310Z,19.74
2023-08-11T00:44:11.354Z,19.72
2023-08-11T00:47:13.570Z,19.68
2023-08-11T00:50:18.734Z,19.65
2023-08-11T00:53:21.270Z,19.58
2023-08-11T00:56:24.330Z,19.56
2023-08-11T00:59:27.087Z,19.53
2023-08-11T01:02:29.108Z,19.50
2023-08-11T01:05:35.703Z,19.39
2023-08-11T01:09:19.868Z,19.41
2023-08-11T01:12:24.966Z,19.37
2023-08-11T01:15:41.585Z,19.29
2023-08-11T01:18:44.152Z,19.20
2023-08-11T01:21:47.582Z,19.15
2023-08-11T01:24:50.147Z,19.16
2023-08-11T01:28:00.140Z,19.15
2023-08-11T01:31:02.190Z,19.08
2023-08-11T01:34:04.443Z,19.06
2023-08-11T01:37:06.742Z,19.07
2023-08-11T01:40:12.290Z,19.07
2023-08-11T01:43:16.437Z,19.14
2023-08-11T01:46:19.149Z,19.20
2023-08-11T01:49:24.208Z,19.24
2023-08-11T01:52:27.363Z,19.29
2023-08-11T01:55:30.228Z,19.33
2023-08-11T01:58:32.666Z,19.33
2023-08-11T02:01:34.700Z,19.36
2023-08-11T02:04:36.871Z,19.35
2023-08-11T02:07:39.554Z,19.31
2023-08-11T02:10:41.512Z,19.31
2023-08-11T02:13:44.490Z,19.34
2023-08-11T02:16:46.916Z,19.36
2023-08-11T02:19:52.015Z,19.44
2023-08-11T02:22:55.156Z,19.47
2023-08-11T02:25:58.173Z,19.46
2023-08-11T02:29:00.129Z,19.52
2023-08-11T02:32:04.635Z,19.48
2023-08-11T02:35:07.384Z,19.48
2023-08-11T02:38:09.974Z,19.57
2023-08-11T02:41:12.404Z,19.58
2023-08-11T02:44:14.626Z,19.62
2023-08-11T02:47:16.583Z,19.68
2023-08-11T02:50:19.105Z,19.65
2023-08-11T02:53:21.132Z,19.65
2023-08-11T02:56:23.116Z,19.67
2023-08-11T02:59:25.079Z,19.66
2023-08-11T03:02:27.606Z,19.66
2023-08-11T03:05:29.580Z,19.70
2023-08-11T03:08:33.012Z,19.70
2023-08-11T03:11:35.979Z,19.73
2023-08-11T03:14:37.977Z,19.76
2023-08-11T03:17:40.102Z,19.78
2023-08-11T03:20:43.489Z,19.77
2023-08-11T03:23:45.386Z,19.77
2023-08-11T03:26:47.347Z,19.75
2023-08-11T03:29:49.429Z,19.76
2023-08-11T03:32:52.748Z,19.77
2023-08-11T03:35:56.316Z,19.75
2023-08-11T03:38:58.335Z,19.76
2023-08-11T03:42:01.343Z,19.75
2023-08-11T03:45:03.978Z,19.72
2023-08-11T03:48:07.406Z,19.74
2023-08-11T03:51:10.822Z,19.68
2023-08-11T03:54:13.219Z,19.65
2023-08-11T03:57:15.804Z,19.66
2023-08-11T04:00:20.869Z,19.65
2023-08-11T04:03:33.592Z,19.63
2023-08-11T04:06:35.570Z,19.54
2023-08-11T04:09:41.166Z,19.58
2023-08-11T04:12:43.093Z,19.60
2023-08-11T04:15:48.904Z,19.62
2023-08-11T04:18:52.032Z,19.65
2023-08-11T04:21:54.013Z,19.65
2023-08-11T04:24:56.615Z,19.70
2023-08-11T04:28:00.944Z,19.69
2023-08-11T04:31:03.080Z,19.78
2023-08-11T04:34:07.749Z,19.88
2023-08-11T04:37:09.677Z,19.89
2023-08-11T04:40:14.988Z,20.00
2023-08-11T04:43:20.143Z,20.08
2023-08-11T04:46:22.692Z,20.11
2023-08-11T04:49:25.329Z,20.15
2023-08-11T04:52:28.283Z,20.17
2023-08-11T04:55:32.381Z,20.28
2023-08-11T04:58:39.391Z,20.32
2023-08-11T05:01:41.473Z,20.35
2023-08-11T05:04:43.620Z,20.33
2023-08-11T05:07:45.562Z,20.31
2023-08-11T05:10:47.389Z,20.30
2023-08-11T05:13:49.270Z,20.33
2023-08-11T05:16:51.340Z,20.41
2023-08-11T05:19:53.296Z,20.52
2023-08-11T05:22:55.279Z,20.54
2023-08-11T05:25:57.131Z,20.61
2023-08-11T05:28:59.289Z,20.73
2023-08-11T05:32:01.226Z,20.81
2023-08-11T05:35:03.901Z,20.84
2023-08-11T05:38:06.457Z,20.79
2023-08-11T05:41:08.345Z,20.91
2023-08-11T05:44:10.336Z,20.92
2023-08-11T05:47:12.501Z,20.88
2023-08-11T05:50:14.575Z,20.96
2023-08-11T05:53:17.109Z,21.01
2023-08-11T05:56:18.955Z,21.13
2023-08-11T05:59:23.779Z,21.22
2023-08-11T06:02:25.694Z,21.20
2023-08-11T06:05:28.171Z,21.29
2023-08-11T06:08:30.082Z,21.42
2023-08-11T06:11:32.103Z,21.52
2023-08-11T06:14:34.672Z,21.45
2023-08-11T06:17:37.772Z,21.46
2023-08-11T06:20:42.119Z,21.49
2023-08-11T06:23:45.220Z,21.58
2023-08-11T06:26:47.202Z,21.60
2023-08-11T06:29:49.480Z,21.54
2023-08-11T06:32:51.490Z,21.72
2023-08-11T06:35:54.247Z,21.85
2023-08-11T06:38:56.140Z,21.80
2023-08-11T06:41:58.113Z,21.86
2023-08-11T06:45:19.973Z,22.11
2023-08-11T06:48:21.906Z,22.26
2023-08-11T06:51:23.790Z,22.37
2023-08-11T06:54:25.707Z,22.60
2023-08-11T06:57:27.713Z,22.64
2023-08-11T07:00:29.602Z,22.80
2023-08-11T07:03:34.623Z,22.93
2023-08-11T07:06:36.963Z,23.09
2023-08-11T07:09:38.799Z,23.15
2023-08-11T07:12:40.765Z,23.27
2023-08-11T07:15:43.739Z,23.56
2023-08-11T07:18:45.826Z,23.93
2023-08-11T07:21:47.761Z,24.07
2023-08-11T07:24:49.641Z,24.50
2023-08-11T07:27:51.485Z,24.54
2023-08-11T07:30:53.414Z,24.70
2023-08-11T07:33:55.319Z,24.91
2023-08-11T07:36:57.270Z,25.12
2023-08-11T07:39:59.184Z,25.34
2023-08-11T07:43:01.294Z,25.30
2023-08-11T07:46:03.187Z,25.03
2023-08-11T07:49:05.317Z,24.84
2023-08-11T07:52:07.123Z,24.89
2023-08-11T07:55:09.437Z,25.11
2023-08-11T07:58:11.889Z,25.05
2023-08-11T08:01:13.896Z,24.90
2023-08-11T08:04:15.979Z,24.77
2023-08-11T08:07:17.854Z,24.64
2023-08-11T08:10:21.468Z,24.59
2023-08-11T08:13:23.510Z,24.51
2023-08-11T08:16:25.546Z,24.47
2023-08-11T08:19:27.357Z,24.40
2023-08-11T08:22:30.227Z,24.42
2023-08-11T08:25:32.213Z,24.31
2023-08-11T08:28:34.525Z,24.22
2023-08-11T08:31:37.039Z,24.16
2023-08-11T08:34:39.155Z,24.08
2023-08-11T08:37:41.103Z,23.95
2023-08-11T08:40:44.178Z,23.90
2023-08-11T08:43:47.586Z,23.86
2023-08-11T08:46:53.241Z,23.83
2023-08-11T08:49:57.254Z,23.83
2023-08-11T08:53:02.321Z,23.77
2023-08-11T08:56:06.159Z,23.70
2023-08-11T08:59:09.382Z,23.68
2023-08-11T09:02:13.780Z,23.67
2023-08-11T09:05:16.369Z,23.65
2023-08-11T09:08:18.299Z,23.58
2023-08-11T09:11:22.882Z,23.51
2023-08-11T09:14:25.035Z,23.45
2023-08-11T09:17:27.106Z,23.28
2023-08-11T09:20:30.405Z,23.19
2023-08-11T09:23:34.147Z,23.10
2023-08-11T09:26:36.112Z,22.87
2023-08-11T09:29:38.477Z,22.73
2023-08-11T09:32:40.659Z,22.55
2023-08-11T09:35:43.078Z,22.40
2023-08-11T09:38:45.732Z,22.27
2023-08-11T09:41:49.315Z,22.26
2023-08-11T09:44:52.509Z,22.26
2023-08-11T09:47:54.383Z,22.25
2023-08-11T09:50:57.768Z,22.18
2023-08-11T09:54:04.165Z,22.17
2023-08-11T09:57:07.194Z,22.06
2023-08-11T10:00:15.475Z,21.99
2023-08-11T10:03:21.357Z,21.81
2023-08-11T10:06:28.090Z,21.73
2023-08-11T10:09:30.490Z,21.75
2023-08-11T10:12:34.039Z,21.84
2023-08-11T10:15:36.362Z,21.88
2023-08-11T10:18:38.287Z,21.86
2023-08-11T10:21:40.619Z,21.89
2023-08-11T10:24:44.730Z,21.85
2023-08-11T10:27:47.005Z,21.77
2023-08-11T10:31:02.535Z,21.65
2023-08-11T10:34:07.766Z,21.65
2023-08-11T10:37:09.883Z,21.64
2023-08-11T10:40:12.013Z,21.73
2023-08-11T10:43:16.448Z,21.67
2023-08-11T10:46:28.994Z,21.77
2023-08-11T10:49:35.098Z,21.80
2023-08-11T10:52:36.991Z,21.84
2023-08-11T10:55:40.401Z,21.85
2023-08-11T10:58:44.264Z,21.91
2023-08-11T11:01:47.167Z,21.97
2023-08-11T11:04:49.038Z,21.96
2023-08-11T11:07:52.387Z,21.95
2023-08-11T11:10:54.365Z,22.04
2023-08-11T11:13:56.149Z,22.02
2023-08-11T11:17:00.446Z,22.09
2023-08-11T11:20:03.577Z,22.09
2023-08-11T11:23:06.191Z,22.11
2023-08-11T11:26:07.966Z,22.13
2023-08-11T11:29:09.930Z,22.15
2023-08-11T11:32:13.006Z,22.16
2023-08-11T11:35:15.028Z,22.22
2023-08-11T11:38:16.993Z,22.21
2023-08-11T11:41:19.314Z,22.20
2023-08-11T11:44:21.481Z,22.17
2023-08-11T11:47:23.535Z,22.13
2023-08-11T11:50:26.955Z,22.05
2023-08-11T11:53:29.775Z,22.03
2023-08-11T11:56:31.786Z,21.99
2023-08-11T11:59:35.100Z,22.03
2023-08-11T12:02:37.070Z,21.97
2023-08-11T12:05:39.096Z,21.96
2023-08-11T12:12:03.480Z,21.96
2023-08-11T12:15:08.736Z,21.93
2023-08-11T12:18:12.292Z,21.84
2023-08-11T12:21:14.270Z,21.83
2023-08-11T12:24:16.158Z,21.77
2023-08-11T12:27:18.053Z,21.78
2023-08-11T12:30:20.188Z,21.80
2023-08-11T12:33:22.627Z,21.68
2023-08-11T12:36:24.586Z,21.57
2023-08-11T12:39:26.533Z,21.72
2023-08-11T12:43:33.977Z,21.73
2023-08-11T12:46:37.430Z,21.73
2023-08-11T12:49:39.633Z,21.68
2023-08-11T12:52:41.631Z,21.65
2023-08-11T12:55:44.043Z,21.68
2023-08-11T12:58:45.961Z,21.61
2023-08-11T13:01:48.061Z,21.73
2023-08-11T13:04:50.009Z,21.79
2023-08-11T13:07:51.956Z,21.95
2023-08-11T13:10:56.818Z,22.08
2023-08-11T13:13:58.767Z,22.19
2023-08-11T13:17:00.752Z,22.29
2023-08-11T13:20:07.636Z,22.33
2023-08-11T13:23:09.777Z,22.20
2023-08-11T13:26:13.472Z,22.15
2023-08-11T13:29:15.369Z,22.10
2023-08-11T13:32:17.323Z,22.04
2023-08-11T13:35:19.250Z,22.02
2023-08-11T13:38:21.392Z,22.01
2023-08-11T13:41:23.245Z,21.98
2023-08-11T13:44:25.167Z,21.78
2023-08-11T13:47:27.713Z,21.80
2023-08-11T13:50:29.810Z,21.68
2023-08-11T13:53:31.778Z,21.68
2023-08-11T13:56:36.356Z,21.67
2023-08-11T13:59:38.282Z,21.60
2023-08-11T14:02:40.201Z,21.59
2023-08-11T14:05:42.514Z,21.54
2023-08-11T14:08:44.572Z,21.47
2023-08-11T14:11:46.858Z,21.47
2023-08-11T14:14:49.126Z,21.42
2023-08-11T14:17:50.936Z,21.41
2023-08-11T14:20:52.905Z,21.42
2023-08-11T14:23:55.962Z,21.37
2023-08-11T14:26:58.101Z,21.32
2023-08-11T14:29:59.968Z,21.24
2023-08-11T14:33:01.987Z,21.20
2023-08-11T14:39:13.884Z,21.12
2023-08-11T14:42:15.942Z,21.15
2023-08-11T14:45:17.864Z,21.13
2023-08-11T14:48:20.666Z,20.71
2023-08-11T14:51:22.704Z,20.81
2023-08-11T14:54:27.775Z,20.76
2023-08-11T14:57:29.982Z,20.64
2023-08-11T15:00:33.337Z,20.58
2023-08-11T15:03:35.309Z,20.50
2023-08-11T15:06:37.340Z,20.38
2023-08-11T15:09:39.961Z,20.45
2023-08-11T15:12:42.521Z,20.35
2023-08-11T15:15:44.417Z,20.02
2023-08-11T15:18:46.296Z,20.12
2023-08-11T15:21:48.272Z,20.20
2023-08-11T15:24:50.220Z,20.24
2023-08-11T15:27:52.126Z,20.27
2023-08-11T15:30:54.098Z,20.30
2023-08-11T15:33:56.016Z,20.31
2023-08-11T15:36:57.895Z,20.38
2023-08-11T15:39:59.774Z,20.43
2023-08-11T15:43:01.885Z,20.34
2023-08-11T15:46:04.527Z,20.39
2023-08-11T15:49:06.621Z,20.26
2023-08-11T15:52:08.886Z,20.34
2023-08-11T15:55:11.068Z,20.29
2023-08-11T15:58:13.026Z,20.21
2023-08-11T16:01:15.071Z,20.28
2023-08-11T16:04:17.120Z,20.26
2023-08-11T16:07:19.106Z,20.34
2023-08-11T16:10:21.062Z,20.32
2023-08-11T16:13:22.964Z,20.44
2023-08-11T16:16:25.161Z,20.42
2023-08-11T16:19:27.139Z,20.48
2023-08-11T16:22:31.366Z,20.46
2023-08-11T16:25:33.339Z,20.44
2023-08-11T16:28:35.316Z,20.38
2023-08-11T16:31:37.226Z,20.37
2023-08-11T16:34:39.135Z,20.33
2023-08-11T16:37:41.167Z,20.42
2023-08-11T16:40:43.261Z,20.46
2023-08-11T16:43:45.983Z,20.47
2023-08-11T16:46:47.922Z,20.50
2023-08-11T16:49:51.447Z,20.51
2023-08-11T16:52:54.650Z,20.51
2023-08-11T16:55:56.628Z,20.53
2023-08-11T16:59:01.215Z,20.46
2023-08-11T17:02:03.129Z,20.47
2023-08-11T17:05:05.436Z,20.51
2023-08-11T17:08:09.922Z,20.55
2023-08-11T17:11:11.897Z,20.49
2023-08-11T17:14:13.820Z,20.46
2023-08-11T17:17:15.864Z,20.48
2023-08-11T17:20:17.994Z,20.36
2023-08-11T17:23:20.268Z,20.28
2023-08-11T17:26:22.590Z,20.20
2023-08-11T17:29:24.509Z,20.27
2023-08-11T17:32:26.362Z,20.29
2023-08-11T17:35:28.249Z,20.34
2023-08-11T17:38:30.821Z,20.39
2023-08-11T17:41:32.668Z,20.44
2023-08-11T17:44:34.659Z,20.44
2023-08-11T17:47:36.773Z,20.48
2023-08-11T17:50:39.834Z,20.47
2023-08-11T17:53:42.623Z,20.43
2023-08-11T17:56:47.338Z,20.46
2023-08-11T17:59:49.218Z,20.41
2023-08-11T18:02:51.577Z,20.40
2023-08-11T18:05:53.558Z,20.41
2023-08-11T18:08:55.697Z,20.42
2023-08-11T18:11:57.633Z,20.35
2023-08-11T18:15:01.560Z,20.30
2023-08-11T18:18:04.167Z,20.39
2023-08-11T18:21:15.295Z,20.47
2023-08-11T18:24:22.706Z,20.53
2023-08-11T18:27:24.682Z,20.51
2023-08-11T18:30:26.626Z,20.42
2023-08-11T18:33:28.577Z,20.42
2023-08-11T18:36:30.515Z,20.33
2023-08-11T18:39:32.418Z,20.33
2023-08-11T18:42:34.417Z,20.31
2023-08-11T18:45:36.312Z,20.32
2023-08-11T18:48:38.208Z,20.33
2023-08-11T18:51:41.401Z,20.29
2023-08-11T18:54:43.416Z,20.16
2023-08-11T18:57:45.352Z,19.97
2023-08-11T19:00:47.212Z,19.90
2023-08-11T19:03:49.186Z,20.01
2023-08-11T19:06:51.174Z,20.01
2023-08-11T19:09:53.107Z,20.00
2023-08-11T19:12:55.307Z,20.07
2023-08-11T19:15:57.382Z,19.99
2023-08-11T19:19:00.007Z,19.92
2023-08-11T19:22:02.003Z,19.93
2023-08-11T19:25:05.569Z,19.95
2023-08-11T19:28:08.446Z,19.89
2023-08-11T19:31:10.505Z,19.84
2023-08-11T19:34:12.685Z,19.79
2023-08-11T19:37:14.928Z,19.76
2023-08-11T19:40:16.983Z,19.66
2023-08-11T19:43:19.002Z,19.75
2023-08-11T19:46:21.014Z,19.76
2023-08-11T19:49:23.089Z,19.63
2023-08-11T19:52:24.944Z,19.58
2023-08-11T19:55:27.017Z,19.63
2023-08-11T19:58:28.880Z,19.38
2023-08-11T20:01:30.804Z,19.58
2023-08-11T20:04:32.763Z,19.66
2023-08-11T20:07:34.614Z,19.62
2023-08-11T20:10:36.604Z,19.66
2023-08-11T20:13:38.525Z,19.58
2023-08-11T20:16:40.477Z,19.54
2023-08-11T20:19:42.348Z,19.59
2023-08-11T20:22:44.956Z,19.40
2023-08-11T20:25:47.148Z,19.26
2023-08-11T20:28:49.121Z,19.36
2023-08-11T20:31:55.545Z,19.37
2023-08-11T20:34:57.471Z,19.22
2023-08-11T20:37:59.574Z,19.13
2023-08-11T20:41:01.448Z,19.20
2023-08-11T20:44:03.579Z,19.16
2023-08-11T20:47:05.671Z,19.13
2023-08-11T20:50:08.075Z,19.13
2023-08-11T20:53:10.303Z,18.97
2023-08-11T20:56:12.996Z,19.03
2023-08-11T20:59:14.940Z,19.07
2023-08-11T21:02:16.863Z,19.01
2023-08-11T21:05:18.733Z,18.99
2023-08-11T21:08:20.714Z,19.09
2023-08-11T21:11:22.607Z,19.09
2023-08-11T21:14:24.886Z,18.97
2023-08-11T21:17:26.839Z,19.01
2023-08-11T21:20:28.745Z,19.06
2023-08-11T21:23:30.590Z,19.05
2023-08-11T21:26:32.638Z,19.01
2023-08-11T21:29:34.577Z,18.98
2023-08-11T21:32:36.528Z,18.97
2023-08-11T21:35:38.921Z,18.87
2023-08-11T21:38:40.807Z,18.98
2023-08-11T21:41:42.641Z,18.98
2023-08-11T21:44:44.548Z,18.98
2023-08-11T21:47:46.880Z,18.96
2023-08-11T21:50:48.648Z,18.94
2023-08-11T21:53:50.596Z,18.98
2023-08-11T21:56:52.543Z,18.97
2023-08-11T21:59:54.505Z,18.98
2023-08-11T22:02:56.492Z,18.98
2023-08-11T22:05:58.927Z,18.97
2023-08-11T22:09:00.661Z,18.99
2023-08-11T22:12:02.595Z,19.04
2023-08-11T22:15:05.997Z,19.01
2023-08-11T22:18:07.928Z,19.00
2023-08-11T22:21:09.988Z,19.02
2023-08-11T22:24:12.365Z,19.06
2023-08-11T22:27:14.643Z,19.11
2023-08-11T22:30:17.329Z,19.17
2023-08-11T22:33:20.251Z,19.20
2023-08-11T22:36:22.171Z,19.22
2023-08-11T22:39:24.108Z,19.18
2023-08-11T22:42:27.551Z,19.11
2023-08-11T22:45:29.419Z,19.02
2023-08-11T22:48:31.465Z,18.93
2023-08-11T22:51:33.334Z,18.94
2023-08-11T22:54:35.250Z,18.96
2023-08-11T22:57:37.116Z,18.94
2023-08-11T23:00:39.574Z,18.93
2023-08-11T23:03:41.584Z,18.89
2023-08-11T23:06:43.574Z,18.78
2023-08-11T23:09:45.546Z,18.67
2023-08-11T23:12:47.439Z,18.71
2023-08-11T23:15:49.616Z,18.73
2023-08-11T23:18:51.696Z,18.42
2023-08-11T23:21:53.575Z,18.45
2023-08-11T23:24:55.612Z,18.31
2023-08-11T23:27:57.569Z,18.40
2023-08-11T23:30:59.460Z,18.17
2023-08-11T23:34:01.300Z,18.23
2023-08-11T23:37:03.223Z,18.27
2023-08-11T23:40:05.700Z,18.23
2023-08-11T23:43:07.823Z,18.20
2023-08-11T23:46:14.979Z,18.23
2023-08-11T23:49:17.182Z,18.31
2023-08-11T23:52:19.626Z,18.36
2023-08-11T23:55:21.574Z,18.37
2023-08-11T23:58:23.630Z,18.34
